Weather observations for the past three days for
Watauga County Hospital Heliport
Imperial (Metric)
Date Time (edt) Wind (mph) Vis. (mi.) Weather Sky Cond. Temperature (ºF) Relative Humidity Wind Chill (°F) Heat Index (°F) Pressure Precipitation (in)
Air Dwpt 6 hour altimeter (in) sea level (mb) 1 hr 3 hr 6 hr
Max. Min.
03 00:35 Calm 7.00 NULL NULL 67.1 67.1 100% 30.23 0.0
03 00:15 Calm 5.00 Fog/Mist NULL 66.9 66.9 100% 30.24 0.0
02 23:55 Calm 7.00 NULL NULL 67.6 67.6 100% 30.25 0.0
02 23:35 Calm 7.00 NULL NULL 68 68 100% 30.26 0.0
02 23:15 Calm 10.00 NULL NULL 69.1 69.1 100% 30.26 0.0
02 22:55 Calm 10.00 NULL NULL 68.5 68.5 100% 30.26 0.0
02 22:35 Calm 7.00 NULL NULL 68.7 68.7 100% 30.26 0.0
02 22:15 Calm 10.00 NULL NULL 69.4 69.4 100% 30.26 0.0
02 21:55 Calm 10.00 NULL NULL 69.3 69.3 100% 30.26 0.0
02 21:35 Calm 10.00 NULL NULL 70.9 70.9 100% 30.26 0.0
02 21:15 Calm 10.00 NULL NULL 70.7 70.7 100% 30.25 0.0
02 20:55 Calm 10.00 NULL NULL 71.2 70.9 99% 30.24 0.0
02 20:35 Calm 10.00 NULL NULL 73.4 68.9 86% 30.23 0.0
02 20:15 Calm 10.00 NULL NULL 74.3 68.9 83% 30.23 0.0
02 19:55 Calm 10.00 NULL NULL 77.4 68.2 88.2 76.3 73% 79 30.23 0.0
02 19:35 Calm 10.00 NULL NULL 78.1 68.2 72% 80 30.23 0.0
02 19:15 Calm 10.00 NULL NULL 80.8 67.1 63% 83 30.22 0.0
02 18:55 Calm 10.00 NULL NULL 81.9 66.7 60% 84 30.22 0.0
02 18:35 Calm 10.00 NULL NULL 82.4 68 62% 85 30.22 0.0
02 18:15 Calm 10.00 NULL NULL 82.9 69.1 63% 87 30.22 0.0
02 17:55 Calm 10.00 NULL NULL 81.3 68 64% 84 30.23 0.0
02 17:35 Calm 10.00 NULL NULL 82.2 67.8 62% 85 30.22 0.0
02 17:15 Calm 10.00 NULL NULL 84.7 64.6 51% 86 30.22 0.0
02 16:55 Calm 10.00 NULL NULL 86.9 64.8 48% 89 30.22 0.0
02 16:35 Calm 10.00 NULL NULL 86.5 60.6 42% 86 30.22 0.0
02 16:15 Calm 10.00 NULL NULL 86.9 59.7 40% 87 30.23 0.0
02 15:55 Calm 10.00 NULL NULL 86.9 60.3 41% 87 30.23 0.0
02 15:35 Calm 10.00 NULL NULL 86.2 60.1 41% 86 30.24 0.0
02 15:15 Calm 10.00 NULL NULL 84 63.3 50% 85 30.25 0.0
02 14:55 Calm 10.00 NULL NULL 84.7 62.1 47% 85 30.25 0.0
02 14:35 Calm 10.00 NULL NULL 85.3 61 44% 85 30.25 0.0
02 14:15 Calm 10.00 NULL NULL 84.9 62.2 47% 86 30.25 0.0
02 13:55 Calm 10.00 NULL NULL 86.2 61 87.4 61.7 43% 86 30.26 0.0 0.14
02 13:35 Calm 10.00 NULL NULL 86.5 60.3 41% 86 30.26 0.0
02 13:15 Calm 10.00 NULL NULL 86.2 60.8 43% 86 30.27 0.0
02 12:55 Calm 10.00 NULL NULL 84.6 59.9 43% 84 30.27 0.0
02 12:35 Calm 10.00 NULL NULL 84 60.6 45% 84 30.28 0.0
02 12:15 Calm 10.00 NULL NULL 83.5 61.5 48% 84 30.28 0.0
02 11:55 Calm 10.00 NULL NULL 82.8 61.5 49% 83 30.29 0.0
02 11:35 Calm 10.00 NULL NULL 82 61.7 50% 83 30.29 0.0
02 11:15 Calm 10.00 NULL NULL 81.7 62.8 53% 83 30.29 0.0
02 10:55 Calm 10.00 NULL NULL 81.1 63.9 56% 83 30.29 0.0 0.14
02 10:35 Calm 7.00 NULL NULL 79.5 63 57% 81 30.28 0.0
02 10:15 Calm 7.00 NULL NULL 78.8 63.3 59% 80 30.28 0.0
02 09:55 Calm 4.00 Haze NULL 77.2 66.6 70% 79 30.28 0.0 0.14
02 09:35 Calm 3.00 Haze NULL 72.9 66.7 81% 30.29 0.0
02 09:15 Calm 2.50 Fog/Mist NULL 69.4 69.4 100% 30.29 0.0
02 08:55 Calm 10.00 NULL NULL 66.2 66.2 100% 30.29 0.0
02 08:35 Calm 7.00 NULL NULL 64.4 64.4 100% 30.29 0.0
02 08:15 Calm 7.00 NULL NULL 62.8 62.8 100% 30.29 0.0
02 07:55 Calm 3.00 Fog/Mist NULL 61.3 61.3 64 59.9 100% 30.29 0.0
02 07:35 Calm 3.00 Fog/Mist NULL 60.8 60.8 100% 30.28 0.0
02 07:15 Calm 4.00 Fog/Mist NULL 61 61 100% 30.27 0.0
02 06:55 Calm 3.00 Fog/Mist NULL 60.3 60.3 100% 30.27 0.0
02 06:35 Calm 3.00 Fog/Mist NULL 60.4 60.4 100% 30.27 0.0
02 06:15 Calm 7.00 NULL NULL 61.3 61.3 100% 30.27 0.0
02 05:55 Calm 4.00 Fog/Mist NULL 60.6 60.6 100% 30.26 0.0
02 05:35 Calm 5.00 Fog/Mist NULL 61.7 61.7 100% 30.26 0.0
02 05:15 Calm 5.00 Fog/Mist NULL 61.7 61.7 100% 30.26 0.0
02 04:55 Calm 4.00 Fog/Mist NULL 61.9 61.9 100% 30.26 0.0
02 04:35 Calm 7.00 NULL NULL 62.6 62.6 100% 30.26 0.0
02 04:15 Calm 7.00 NULL NULL 61.9 61.9 100% 30.26 0.0
02 03:55 Calm 3.00 Fog/Mist NULL 61.7 61.7 100% 30.26 0.0
02 03:35 Calm 5.00 Fog/Mist NULL 62.2 62.2 100% 30.26 0.0
02 03:15 Calm 5.00 Fog/Mist NULL 62.8 62.8 100% 30.26 0.0
02 02:55 Calm 5.00 Fog/Mist NULL 62.4 62.4 100% 30.26 0.0
02 02:35 Calm 4.00 Fog/Mist NULL 63.1 63.1 100% 30.26 0.0
02 02:15 Calm 7.00 NULL NULL 63.5 63.5 100% 30.26 0.0
02 01:55 Calm 7.00 NULL NULL 64 64 77.4 63.7 100% 30.26 0.0
02 01:35 Calm 4.00 Fog/Mist NULL 63.7 63.7 100% 30.25 0.0
02 01:15 Calm 10.00 NULL NULL 64.4 64.4 100% 30.26 0.0
02 00:55 Calm 4.00 Fog/Mist NULL 64.4 64.4 100% 30.26 0.0
02 00:35 Calm 7.00 NULL NULL 65.1 65.1 100% 30.26 0.0
02 00:15 Calm 7.00 NULL NULL 65.5 65.5 100% 30.26 0.0
01 23:55 Calm 7.00 NULL NULL 65.5 65.5 100% 30.25 0.0
01 23:35 Calm 10.00 NULL NULL 65.7 65.7 100% 30.25 0.0
01 23:15 Calm 7.00 NULL NULL 65.8 65.8 100% 30.26 0.0
01 22:55 Calm 10.00 NULL NULL 66.2 66.2 100% 30.26 0.0
01 22:15 Calm 7.00 NULL NULL 68.2 66.7 95% 30.26 0.0
01 21:55 Calm 10.00 NULL NULL 68.2 68 99% 30.25 0.0
01 21:35 Calm 10.00 NULL NULL 68.4 68.4 100% 30.24 0.0
01 21:15 Calm 10.00 NULL NULL 68.9 65.8 90% 30.24 0.0
01 20:55 Calm 10.00 NULL NULL 69.8 66.2 88% 30.23 0.0
01 20:35 Calm 10.00 NULL NULL 72.3 65.7 80% 30.23 0.0
01 20:15 Calm 10.00 NULL NULL 72.5 65.7 79% 30.23 0.0
01 19:55 Calm 10.00 NULL NULL 77.4 64.6 86.5 77 65% 79 30.24 0.0
01 19:35 Calm 10.00 NULL NULL 79.7 64.4 60% 81 30.24 0.0
01 19:15 Calm 10.00 NULL NULL 80.6 63.3 56% 82 30.24 0.0
01 18:55 Calm 10.00 NULL NULL 81.5 63 53% 83 30.24 0.0
01 18:35 Calm 10.00 NULL NULL 82.8 62.2 50% 84 30.24 0.0
01 18:15 Calm 10.00 NULL NULL 83.5 61.7 48% 84 30.23 0.0
01 17:55 Calm 10.00 NULL NULL 83.3 60.6 46% 84 30.23 0.0
01 17:35 Calm 10.00 NULL NULL 83.1 61.3 48% 84 30.23 0.0
01 17:15 Calm 10.00 NULL NULL 84.6 61.2 45% 85 30.23 0.0
01 16:55 Calm 10.00 NULL NULL 85.1 61.3 45% 85 30.23 0.0
01 16:35 Calm 10.00 NULL NULL 84.4 61 45% 85 30.24 0.0
01 16:15 Calm 10.00 NULL NULL 84.9 59.9 43% 85 30.24 0.0
01 15:55 Calm 10.00 NULL NULL 86.4 60.8 42% 86 30.24 0.0
01 15:35 Calm 10.00 NULL NULL 83.1 61.7 48% 84 30.25 0.0
01 15:15 Calm 10.00 NULL NULL 85.5 61.9 45% 86 30.25 0.0
01 14:55 Calm 10.00 NULL NULL 85.5 62.8 47% 86 30.25 0.0
01 14:35 Calm 10.00 NULL NULL 83.5 61 47% 84 30.26 0.0
01 14:15 Calm 10.00 NULL NULL 83.7 63.3 50% 85 30.26 0.0
01 13:55 Calm 10.00 NULL NULL 83.3 61.9 83.5 61.3 49% 84 30.26 0.0
01 13:35 Calm 10.00 NULL NULL 82.9 62.6 50% 84 30.26 0.0
01 13:15 Calm 10.00 NULL NULL 82.4 63.1 52% 84 30.27 0.0
01 12:55 Calm 10.00 NULL NULL 82.4 62.2 51% 83 30.27 0.0
01 12:35 Calm 10.00 NULL NULL 82.6 62.2 50% 83 30.28 0.0
01 12:15 Calm 10.00 NULL NULL 82.2 62.4 51% 83 30.28 0.0
01 11:55 Calm 10.00 NULL NULL 81.1 63.3 55% 82 30.29 0.0
01 11:35 Calm 10.00 NULL NULL 81.3 64 56% 83 30.29 0.0
01 11:15 Calm 10.00 NULL NULL 79 64.2 61% 81 30.29 0.0
01 10:55 Calm 10.00 NULL NULL 77.9 63.9 62% 80 30.29 0.0
01 10:35 Calm 10.00 NULL NULL 77.2 63.9 64% 79 30.29 0.0
01 10:15 Calm 10.00 NULL NULL 76.5 63.7 65% 78 30.29 0.0
01 09:55 Calm 10.00 NULL NULL 75.4 63.7 67% 77 30.29 0.0
01 09:35 Calm 10.00 NULL NULL 74.1 63.7 70% 30.29 0.0
01 09:15 Calm 10.00 NULL NULL 69.3 69.3 100% 30.29 0.0
01 08:55 Calm 10.00 NULL NULL 65.8 65.8 100% 30.29 0.0
01 08:35 Calm 10.00 NULL NULL 64 64 100% 30.29 0.0
01 08:15 Calm 7.00 NULL NULL 62.6 62.6 100% 30.29 0.0
01 07:55 Calm 4.00 Fog/Mist NULL 61.3 61.3 64.4 59.9 100% 30.28 0.0
01 07:35 Calm 3.00 Fog/Mist NULL 60.4 60.4 100% 30.27 0.0
01 07:15 Calm 2.50 Fog/Mist NULL 59.9 59.9 100% 30.26 0.0
01 06:55 Calm 5.00 Fog/Mist NULL 61 61 100% 30.26 0.0
01 06:35 Calm 2.50 Fog/Mist NULL 60.4 60.4 100% 30.26 0.0
01 06:15 Calm 2.00 Fog/Mist NULL 60.8 60.8 100% 30.25 0.0
01 05:55 Calm 1.25 Fog/Mist NULL 61.3 61.3 100% 30.25 0.0
01 05:35 Calm 5.00 Fog/Mist NULL 61.3 61.3 100% 30.25 0.0
01 05:15 Calm 4.00 Fog/Mist NULL 61.7 61.7 100% 30.25 0.0
01 04:55 Calm 2.00 Fog/Mist NULL 61.9 61.9 100% 30.26 0.0
01 04:35 Calm 2.50 Fog/Mist NULL 62.1 62.1 100% 30.25 0.0
01 04:15 Calm 3.00 Fog/Mist NULL 62.2 62.2 100% 30.25 0.0
01 03:55 Calm 1.25 Fog/Mist NULL 62.2 62.2 100% 30.26 0.0
01 03:35 Calm 2.50 Fog/Mist NULL 62.4 62.4 100% 30.26 0.0
01 03:15 Calm 1.25 Fog/Mist NULL 62.6 62.6 100% 30.27 0.0
01 02:55 Calm 3.00 Fog/Mist NULL 63.3 63.3 100% 30.27 0.0
01 02:35 Calm 4.00 Fog/Mist NULL 63 63 100% 30.28 0.0
01 02:15 Calm 1.25 Fog/Mist NULL 63 63 100% 30.28 0.0
01 01:55 Calm 7.00 NULL NULL 64 64 74.3 63.5 100% 30.28 0.0
01 01:35 Calm 3.00 Fog/Mist NULL 63.7 63.7 100% 30.28 0.0
01 01:15 Calm 3.00 Fog/Mist NULL 63.9 63.9 100% 30.28 0.0
01 00:55 Calm 5.00 Fog/Mist NULL 64.8 64.8 100% 30.29 0.0
01 00:35 Calm 5.00 Fog/Mist NULL 65.3 65.3 100% 30.28 0.0
01 00:15 Calm 4.00 Fog/Mist NULL 65.3 65.3 100% 30.27 0.0
31 23:55 Calm 10.00 NULL NULL 65.8 65.8 100% 30.27 0.0
31 23:35 Calm 10.00 NULL NULL 67.1 67.1 100% 30.27 0.0
31 23:15 Calm 4.00 Fog/Mist NULL 66 66 100% 30.27 0.0
31 22:55 Calm 10.00 NULL NULL 67.1 67.1 100% 30.27 0.0
31 22:35 Calm 10.00 NULL NULL 68 68 100% 30.27 0.0
31 22:15 Calm 10.00 NULL NULL 68.2 68.2 100% 30.27 0.0
31 21:55 Calm 10.00 NULL NULL 68.4 68.4 100% 30.27 0.0
31 21:35 Calm 10.00 NULL NULL 68.9 68.9 100% 30.26 0.0
31 21:15 Calm 10.00 NULL NULL 69.3 69.3 100% 30.26 0.0
31 20:55 Calm 10.00 NULL NULL 70.3 69.6 98% 30.26 0.0
31 20:35 Calm 10.00 NULL NULL 71.1 66.6 86% 30.26 0.0
31 20:15 Calm 10.00 NULL NULL 73.4 66.4 79% 30.25 0.0
31 19:35 Calm 10.00 NULL NULL 78.3 63.7 61% 80 30.25 0.0
31 19:15 Calm 10.00 NULL NULL 79.2 62.8 57% 81 30.25 0.0
31 18:55 Calm 10.00 NULL NULL 79.7 63.7 58% 81 30.25 0.0
31 18:15 Calm 10.00 NULL NULL 78.1 65.3 65% 80 30.25 0.0
31 17:55 Calm 10.00 NULL NULL 77.4 66.2 69% 79 30.25 0.0
31 17:35 Calm 10.00 NULL NULL 78.6 65.1 63% 80 30.26 0.0
31 17:15 Calm 10.00 NULL NULL 77.4 65.1 66% 79 30.26 0.0
31 16:55 Calm 10.00 NULL NULL 79.2 64.4 61% 81 30.25 0.0
31 16:35 Calm 10.00 NULL NULL 81.5 66.7 61% 84 30.26 0.0
31 16:15 Calm 10.00 NULL NULL 80.4 67.1 64% 83 30.26 0.0
31 15:55 Calm 10.00 NULL NULL 79.2 65.8 64% 81 30.26 0.0
31 15:35 Calm 10.00 NULL NULL 81.5 58.6 46% 82 30.26 0.0
31 15:15 Calm 10.00 NULL NULL 82 61.7 50% 83 30.27 0.0
31 14:55 Calm 10.00 NULL NULL 81.7 62.1 51% 83 30.28 0.0
31 14:15 Calm 10.00 NULL NULL 79.2 61.2 54% 80 30.28 0.0
31 13:55 Calm 10.00 NULL NULL 79.3 60.6 81.7 61 53% 80 30.28 0.0
31 13:35 Calm 10.00 NULL NULL 81.7 60.4 49% 82 30.29 0.0
31 13:15 Calm 10.00 NULL NULL 78.6 60.8 54% 80 30.29 0.0
31 12:55 Calm 10.00 NULL NULL 80.8 61.3 52% 82 30.29 0.0
31 12:35 Calm 10.00 NULL NULL 79 62.1 56% 80 30.3 0.0
31 12:15 Calm 10.00 NULL NULL 77.9 63.5 61% 80 30.3 0.0
31 11:55 Calm 10.00 NULL NULL 79.7 64 59% 81 30.29 0.0
31 11:35 Calm 10.00 NULL NULL 79.5 64.2 60% 81 30.3 0.0
31 11:15 Calm 10.00 NULL NULL 78.3 64.4 63% 80 30.29 0.0
31 10:55 Calm 10.00 NULL NULL 77.9 64.6 64% 80 30.29 0.0
31 10:35 Calm 10.00 NULL NULL 77.2 64 64% 79 30.29 0.0
31 10:15 Calm 10.00 NULL NULL 74.7 64.2 70% 30.29 0.0
31 09:55 Calm 10.00 NULL NULL 73.2 64.2 74% 30.29 0.0
31 09:35 Calm 10.00 NULL NULL 72.3 64.4 76% 30.3 0.0
31 09:15 Calm 10.00 NULL NULL 70.7 65.8 85% 30.3 0.0
31 08:55 Calm 10.00 NULL NULL 66.9 66.9 100% 30.29 0.0
31 08:35 Calm 7.00 NULL NULL 63.7 63.7 100% 30.29 0.0
31 08:15 Calm 7.00 NULL NULL 62.1 62.1 100% 30.29 0.0
31 07:55 Calm 7.00 NULL NULL 61 61 64.4 58.8 100% 30.29 0.0
31 07:35 Calm 4.00 Fog/Mist NULL 60.3 60.3 100% 30.29 0.0
31 07:15 Calm 1.25 Fog/Mist NULL 59.5 59.5 100% 30.28 0.0
31 06:55 Calm 1.75 Fog/Mist NULL 59 59 100% 30.28 0.0
31 06:35 Calm 2.00 Fog/Mist NULL 59.7 59.7 100% 30.27 0.0
31 06:15 Calm 4.00 Fog/Mist NULL 59.9 59.9 100% 30.27 0.0
31 05:55 Calm 3.00 Fog/Mist NULL 60.1 60.1 100% 30.27 0.0
31 05:35 Calm 5.00 Fog/Mist NULL 60.4 60.4 100% 30.26 0.0
31 05:15 Calm 5.00 Fog/Mist NULL 61 61 100% 30.26 0.0
31 04:55 Calm 10.00 NULL NULL 61.5 61.5 100% 30.26 0.0
31 04:35 Calm 3.00 Fog/Mist NULL 61.3 61.3 100% 30.26 0.0
31 04:15 Calm 4.00 Fog/Mist NULL 62.6 62.6 100% 30.26 0.0
31 03:55 Calm 5.00 Fog/Mist NULL 62.4 62.4 100% 30.26 0.0
31 03:35 Calm 5.00 Fog/Mist NULL 62.6 62.6 100% 30.27 0.0
31 03:15 Calm 10.00 NULL NULL 63.7 63.7 100% 30.26 0.0
31 02:55 Calm 10.00 NULL NULL 63.7 63.7 100% 30.27 0.0
31 02:35 Calm 5.00 Fog/Mist NULL 63.7 63.7 100% 30.27 0.0
31 02:15 Calm 7.00 NULL NULL 63.7 63.7 100% 30.27 0.0
31 01:55 Calm 7.00 NULL NULL 64.4 64.4 70.2 64.4 100% 30.28 0.0
31 01:35 Calm 4.00 Fog/Mist NULL 65.3 65.3 100% 30.29 0.0
31 01:15 Calm 1.25 Fog/Mist NULL 65.5 65.5 100% 30.29 0.0
31 00:55 Calm 2.50 Fog/Mist NULL 65.5 65.5 100% 30.28 0.0
Date Time (edt) Wind (mph) Vis. (mi.) Weather Sky Cond. Air Dwpt Max. Min. Relative Humidity Wind Chill (°F) Heat Index (°F) altimeter (in) sea level (mb) 1 hr 3 hr 6 hr
6 hour
Temperature (ºF) Pressure Precipitation (in)